sensor_id;sensor_type;location;lat;lon;timestamp;temperature;humidity
24408;DHT22;12542;50.924;4.516;2022-08-20T00:00:25;20.00;99.90
24408;DHT22;12542;50.924;4.516;2022-08-20T00:03:00;20.00;99.90
24408;DHT22;12542;50.924;4.516;2022-08-20T00:05:33;20.00;99.90
24408;DHT22;12542;50.924;4.516;2022-08-20T00:07:59;20.00;99.90
24408;DHT22;12542;50.924;4.516;2022-08-20T00:10:27;20.00;99.90
24408;DHT22;12542;50.924;4.516;2022-08-20T00:12:54;19.90;99.90
24408;DHT22;12542;50.924;4.516;2022-08-20T00:15:22;19.90;99.90
24408;DHT22;12542;50.924;4.516;2022-08-20T00:17:50;20.00;99.90
24408;DHT22;12542;50.924;4.516;2022-08-20T00:20:21;20.00;99.90
24408;DHT22;12542;50.924;4.516;2022-08-20T00:22:48;20.00;99.90
24408;DHT22;12542;50.924;4.516;2022-08-20T00:25:14;19.90;99.90
24408;DHT22;12542;50.924;4.516;2022-08-20T00:27:40;19.90;99.90
24408;DHT22;12542;50.924;4.516;2022-08-20T00:30:08;19.90;99.90
24408;DHT22;12542;50.924;4.516;2022-08-20T00:32:46;19.80;99.90
24408;DHT22;12542;50.924;4.516;2022-08-20T00:35:15;19.80;99.90
24408;DHT22;12542;50.924;4.516;2022-08-20T00:37:42;19.80;99.90
24408;DHT22;12542;50.924;4.516;2022-08-20T00:40:10;19.80;99.90
24408;DHT22;12542;50.924;4.516;2022-08-20T00:42:47;19.80;99.90
24408;DHT22;12542;50.924;4.516;2022-08-20T00:45:14;19.90;99.90
24408;DHT22;12542;50.924;4.516;2022-08-20T00:47:40;19.80;99.90
24408;DHT22;12542;50.924;4.516;2022-08-20T00:50:11;19.80;99.90
24408;DHT22;12542;50.924;4.516;2022-08-20T00:52:39;19.80;99.90
24408;DHT22;12542;50.924;4.516;2022-08-20T00:55:07;19.60;99.90
24408;DHT22;12542;50.924;4.516;2022-08-20T00:57:40;19.50;99.90
24408;DHT22;12542;50.924;4.516;2022-08-20T01:00:16;19.50;99.90
24408;DHT22;12542;50.924;4.516;2022-08-20T01:02:45;19.50;99.90
24408;DHT22;12542;50.924;4.516;2022-08-20T01:05:12;19.40;99.90
24408;DHT22;12542;50.924;4.516;2022-08-20T01:07:39;19.40;99.90
24408;DHT22;12542;50.924;4.516;2022-08-20T01:10:10;19.40;99.90
24408;DHT22;12542;50.924;4.516;2022-08-20T01:12:38;19.50;99.90
24408;DHT22;12542;50.924;4.516;2022-08-20T01:15:09;19.40;99.90
24408;DHT22;12542;50.924;4.516;2022-08-20T01:17:39;19.50;99.90
24408;DHT22;12542;50.924;4.516;2022-08-20T01:20:20;19.50;99.90
24408;DHT22;12542;50.924;4.516;2022-08-20T01:22:59;19.50;99.90
24408;DHT22;12542;50.924;4.516;2022-08-20T01:28:44;19.50;99.90
24408;DHT22;12542;50.924;4.516;2022-08-20T01:31:19;19.30;99.90
24408;DHT22;12542;50.924;4.516;2022-08-20T01:33:45;19.40;99.90
24408;DHT22;12542;50.924;4.516;2022-08-20T01:36:13;19.40;99.90
24408;DHT22;12542;50.924;4.516;2022-08-20T01:38:40;19.40;99.90
24408;DHT22;12542;50.924;4.516;2022-08-20T01:41:23;19.30;99.90
24408;DHT22;12542;50.924;4.516;2022-08-20T01:43:54;19.30;99.90
24408;DHT22;12542;50.924;4.516;2022-08-20T01:46:25;19.20;99.90
24408;DHT22;12542;50.924;4.516;2022-08-20T01:48:52;19.20;99.90
24408;DHT22;12542;50.924;4.516;2022-08-20T01:51:26;19.20;99.90
24408;DHT22;12542;50.924;4.516;2022-08-20T01:53:54;19.10;99.90
24408;DHT22;12542;50.924;4.516;2022-08-20T01:56:27;19.00;99.90
24408;DHT22;12542;50.924;4.516;2022-08-20T01:58:55;19.10;99.90
24408;DHT22;12542;50.924;4.516;2022-08-20T02:03:48;19.00;99.90
24408;DHT22;12542;50.924;4.516;2022-08-20T02:06:15;19.10;99.90
24408;DHT22;12542;50.924;4.516;2022-08-20T02:08:43;19.00;99.90
24408;DHT22;12542;50.924;4.516;2022-08-20T02:11:11;18.90;99.90
24408;DHT22;12542;50.924;4.516;2022-08-20T02:13:38;19.00;99.90
24408;DHT22;12542;50.924;4.516;2022-08-20T02:16:05;18.90;99.90
24408;DHT22;12542;50.924;4.516;2022-08-20T02:18:31;18.90;99.90
24408;DHT22;12542;50.924;4.516;2022-08-20T02:20:57;18.80;99.90
24408;DHT22;12542;50.924;4.516;2022-08-20T02:23:23;18.70;99.90
24408;DHT22;12542;50.924;4.516;2022-08-20T02:25:52;18.70;99.90
24408;DHT22;12542;50.924;4.516;2022-08-20T02:28:18;18.70;99.90
24408;DHT22;12542;50.924;4.516;2022-08-20T02:30:48;18.80;99.90
24408;DHT22;12542;50.924;4.516;2022-08-20T02:33:21;18.60;99.90
24408;DHT22;12542;50.924;4.516;2022-08-20T02:35:49;18.50;99.90
24408;DHT22;12542;50.924;4.516;2022-08-20T02:38:17;18.40;99.90
24408;DHT22;12542;50.924;4.516;2022-08-20T02:40:44;18.40;99.90
24408;DHT22;12542;50.924;4.516;2022-08-20T02:43:10;18.40;99.90
24408;DHT22;12542;50.924;4.516;2022-08-20T02:45:37;18.40;99.90
24408;DHT22;12542;50.924;4.516;2022-08-20T02:48:13;18.40;99.90
24408;DHT22;12542;50.924;4.516;2022-08-20T02:50:50;18.40;99.90
24408;DHT22;12542;50.924;4.516;2022-08-20T02:53:16;18.50;99.90
24408;DHT22;12542;50.924;4.516;2022-08-20T02:55:45;18.40;99.90
24408;DHT22;12542;50.924;4.516;2022-08-20T02:58:10;18.40;99.90
24408;DHT22;12542;50.924;4.516;2022-08-20T03:00:37;18.40;99.90
24408;DHT22;12542;50.924;4.516;2022-08-20T03:03:03;18.20;99.90
24408;DHT22;12542;50.924;4.516;2022-08-20T03:05:28;18.30;99.90
24408;DHT22;12542;50.924;4.516;2022-08-20T03:07:54;18.30;99.90
24408;DHT22;12542;50.924;4.516;2022-08-20T03:10:41;18.20;99.90
24408;DHT22;12542;50.924;4.516;2022-08-20T03:13:08;18.40;99.90
24408;DHT22;12542;50.924;4.516;2022-08-20T03:15:41;18.30;99.90
24408;DHT22;12542;50.924;4.516;2022-08-20T03:18:10;18.30;99.90
24408;DHT22;12542;50.924;4.516;2022-08-20T03:20:37;18.30;99.90
24408;DHT22;12542;50.924;4.516;2022-08-20T03:23:05;18.30;99.90
24408;DHT22;12542;50.924;4.516;2022-08-20T03:25:34;18.30;99.90
24408;DHT22;12542;50.924;4.516;2022-08-20T03:27:59;18.40;99.90
24408;DHT22;12542;50.924;4.516;2022-08-20T03:30:27;18.30;99.90
24408;DHT22;12542;50.924;4.516;2022-08-20T03:32:53;18.40;99.90
24408;DHT22;12542;50.924;4.516;2022-08-20T03:35:21;18.40;99.90
24408;DHT22;12542;50.924;4.516;2022-08-20T03:37:47;18.40;99.90
24408;DHT22;12542;50.924;4.516;2022-08-20T03:40:18;18.40;99.90
24408;DHT22;12542;50.924;4.516;2022-08-20T03:42:44;18.40;99.90
24408;DHT22;12542;50.924;4.516;2022-08-20T03:45:13;18.40;99.90
24408;DHT22;12542;50.924;4.516;2022-08-20T03:47:40;18.40;99.90
24408;DHT22;12542;50.924;4.516;2022-08-20T03:50:08;18.40;99.90
24408;DHT22;12542;50.924;4.516;2022-08-20T03:52:35;18.40;99.90
24408;DHT22;12542;50.924;4.516;2022-08-20T03:55:01;18.40;99.90
24408;DHT22;12542;50.924;4.516;2022-08-20T03:57:28;18.30;99.90
24408;DHT22;12542;50.924;4.516;2022-08-20T03:59:58;18.40;99.90
24408;DHT22;12542;50.924;4.516;2022-08-20T04:02:24;18.20;99.90
24408;DHT22;12542;50.924;4.516;2022-08-20T04:04:51;18.20;99.90
24408;DHT22;12542;50.924;4.516;2022-08-20T04:07:20;18.20;99.90
24408;DHT22;12542;50.924;4.516;2022-08-20T04:09:51;18.20;99.90
24408;DHT22;12542;50.924;4.516;2022-08-20T04:12:23;18.10;99.90
24408;DHT22;12542;50.924;4.516;2022-08-20T04:14:50;18.10;99.90
24408;DHT22;12542;50.924;4.516;2022-08-20T04:17:18;18.00;99.90
24408;DHT22;12542;50.924;4.516;2022-08-20T04:19:44;18.10;99.90
24408;DHT22;12542;50.924;4.516;2022-08-20T04:22:11;18.10;99.90
24408;DHT22;12542;50.924;4.516;2022-08-20T04:24:42;18.00;99.90
24408;DHT22;12542;50.924;4.516;2022-08-20T04:27:09;17.90;99.90
24408;DHT22;12542;50.924;4.516;2022-08-20T04:29:39;17.90;99.90
24408;DHT22;12542;50.924;4.516;2022-08-20T04:32:07;17.80;99.90
24408;DHT22;12542;50.924;4.516;2022-08-20T04:34:33;17.90;99.90
24408;DHT22;12542;50.924;4.516;2022-08-20T04:36:59;17.90;99.90
24408;DHT22;12542;50.924;4.516;2022-08-20T04:39:25;17.80;99.90
24408;DHT22;12542;50.924;4.516;2022-08-20T04:41:51;17.80;99.90
24408;DHT22;12542;50.924;4.516;2022-08-20T04:44:17;17.80;99.90
24408;DHT22;12542;50.924;4.516;2022-08-20T04:46:44;17.80;99.90
24408;DHT22;12542;50.924;4.516;2022-08-20T04:49:10;17.70;99.90
24408;DHT22;12542;50.924;4.516;2022-08-20T04:51:37;17.80;99.90
24408;DHT22;12542;50.924;4.516;2022-08-20T04:54:03;17.80;99.90
24408;DHT22;12542;50.924;4.516;2022-08-20T04:56:32;17.70;99.90
24408;DHT22;12542;50.924;4.516;2022-08-20T04:59:02;17.70;99.90
24408;DHT22;12542;50.924;4.516;2022-08-20T05:01:28;17.70;99.90
24408;DHT22;12542;50.924;4.516;2022-08-20T05:03:55;17.80;99.90
24408;DHT22;12542;50.924;4.516;2022-08-20T05:06:31;17.70;99.90
24408;DHT22;12542;50.924;4.516;2022-08-20T05:08:59;17.80;99.90
24408;DHT22;12542;50.924;4.516;2022-08-20T05:11:26;17.90;99.90
24408;DHT22;12542;50.924;4.516;2022-08-20T05:13:53;17.80;99.90
24408;DHT22;12542;50.924;4.516;2022-08-20T05:16:19;17.80;99.90
24408;DHT22;12542;50.924;4.516;2022-08-20T05:18:45;17.90;99.90
24408;DHT22;12542;50.924;4.516;2022-08-20T05:21:12;17.90;99.90
24408;DHT22;12542;50.924;4.516;2022-08-20T05:23:38;18.00;99.90
24408;DHT22;12542;50.924;4.516;2022-08-20T05:26:08;18.10;99.90
24408;DHT22;12542;50.924;4.516;2022-08-20T05:28:36;18.00;99.90
24408;DHT22;12542;50.924;4.516;2022-08-20T05:31:03;18.10;99.90
24408;DHT22;12542;50.924;4.516;2022-08-20T05:33:34;18.10;99.90
24408;DHT22;12542;50.924;4.516;2022-08-20T05:36:06;18.20;99.90
24408;DHT22;12542;50.924;4.516;2022-08-20T05:38:35;18.30;99.90
24408;DHT22;12542;50.924;4.516;2022-08-20T05:41:02;18.40;99.90
24408;DHT22;12542;50.924;4.516;2022-08-20T05:43:28;18.50;99.90
24408;DHT22;12542;50.924;4.516;2022-08-20T05:46:13;18.50;99.90
24408;DHT22;12542;50.924;4.516;2022-08-20T05:48:41;18.70;99.90
24408;DHT22;12542;50.924;4.516;2022-08-20T05:51:10;18.60;99.90
24408;DHT22;12542;50.924;4.516;2022-08-20T05:53:36;18.60;99.90
24408;DHT22;12542;50.924;4.516;2022-08-20T05:56:02;18.70;99.90
24408;DHT22;12542;50.924;4.516;2022-08-20T05:58:28;18.80;99.90
24408;DHT22;12542;50.924;4.516;2022-08-20T06:00:57;18.80;99.90
24408;DHT22;12542;50.924;4.516;2022-08-20T06:03:24;18.80;99.90
24408;DHT22;12542;50.924;4.516;2022-08-20T06:06:08;18.90;99.90
24408;DHT22;12542;50.924;4.516;2022-08-20T06:08:37;18.80;99.90
24408;DHT22;12542;50.924;4.516;2022-08-20T06:11:03;18.90;99.90
24408;DHT22;12542;50.924;4.516;2022-08-20T06:13:29;18.80;99.90
24408;DHT22;12542;50.924;4.516;2022-08-20T06:15:56;18.80;99.90
24408;DHT22;12542;50.924;4.516;2022-08-20T06:18:22;18.90;99.90
24408;DHT22;12542;50.924;4.516;2022-08-20T06:20:50;19.00;99.90
24408;DHT22;12542;50.924;4.516;2022-08-20T06:23:19;19.10;99.90
24408;DHT22;12542;50.924;4.516;2022-08-20T06:25:45;19.10;99.90
24408;DHT22;12542;50.924;4.516;2022-08-20T06:28:14;19.20;99.90
24408;DHT22;12542;50.924;4.516;2022-08-20T06:30:40;19.20;99.90
24408;DHT22;12542;50.924;4.516;2022-08-20T06:33:06;19.20;99.90
24408;DHT22;12542;50.924;4.516;2022-08-20T06:35:32;19.30;99.90
24408;DHT22;12542;50.924;4.516;2022-08-20T06:38:01;19.30;99.90
24408;DHT22;12542;50.924;4.516;2022-08-20T06:40:28;19.30;99.90
24408;DHT22;12542;50.924;4.516;2022-08-20T06:42:57;19.50;99.90
24408;DHT22;12542;50.924;4.516;2022-08-20T06:45:27;19.60;99.90
24408;DHT22;12542;50.924;4.516;2022-08-20T06:47:55;19.60;99.90
24408;DHT22;12542;50.924;4.516;2022-08-20T06:50:26;19.50;99.90
24408;DHT22;12542;50.924;4.516;2022-08-20T06:52:53;19.70;99.90
24408;DHT22;12542;50.924;4.516;2022-08-20T06:55:21;19.80;99.90
24408;DHT22;12542;50.924;4.516;2022-08-20T06:58:05;19.90;99.90
24408;DHT22;12542;50.924;4.516;2022-08-20T07:00:35;19.90;99.90
24408;DHT22;12542;50.924;4.516;2022-08-20T07:03:01;20.00;99.90
24408;DHT22;12542;50.924;4.516;2022-08-20T07:05:29;20.00;99.90
24408;DHT22;12542;50.924;4.516;2022-08-20T07:07:56;20.00;99.90
24408;DHT22;12542;50.924;4.516;2022-08-20T07:10:24;20.20;99.90
24408;DHT22;12542;50.924;4.516;2022-08-20T07:12:50;20.30;99.90
24408;DHT22;12542;50.924;4.516;2022-08-20T07:15:18;20.40;99.90
24408;DHT22;12542;50.924;4.516;2022-08-20T07:17:52;20.50;99.90
24408;DHT22;12542;50.924;4.516;2022-08-20T07:20:19;20.70;99.90
24408;DHT22;12542;50.924;4.516;2022-08-20T07:22:45;20.80;99.90
24408;DHT22;12542;50.924;4.516;2022-08-20T07:25:13;21.10;99.90
24408;DHT22;12542;50.924;4.516;2022-08-20T07:27:40;21.40;99.90
24408;DHT22;12542;50.924;4.516;2022-08-20T07:30:12;21.60;99.90
24408;DHT22;12542;50.924;4.516;2022-08-20T07:32:56;21.70;99.90
24408;DHT22;12542;50.924;4.516;2022-08-20T07:35:22;22.20;99.90
24408;DHT22;12542;50.924;4.516;2022-08-20T07:37:50;22.40;99.90
24408;DHT22;12542;50.924;4.516;2022-08-20T07:40:21;22.80;99.90
24408;DHT22;12542;50.924;4.516;2022-08-20T07:42:47;23.40;99.90
24408;DHT22;12542;50.924;4.516;2022-08-20T07:45:16;24.30;99.90
24408;DHT22;12542;50.924;4.516;2022-08-20T07:47:44;25.10;99.90
24408;DHT22;12542;50.924;4.516;2022-08-20T07:50:12;25.80;99.90
24408;DHT22;12542;50.924;4.516;2022-08-20T07:52:38;26.50;99.90
24408;DHT22;12542;50.924;4.516;2022-08-20T07:55:05;26.90;99.90
24408;DHT22;12542;50.924;4.516;2022-08-20T07:57:32;27.30;99.90
24408;DHT22;12542;50.924;4.516;2022-08-20T08:00:00;27.70;99.90
24408;DHT22;12542;50.924;4.516;2022-08-20T08:02:28;27.60;99.90
24408;DHT22;12542;50.924;4.516;2022-08-20T08:04:54;27.60;99.90
24408;DHT22;12542;50.924;4.516;2022-08-20T08:07:25;27.60;99.90
24408;DHT22;12542;50.924;4.516;2022-08-20T08:09:54;27.60;99.90
24408;DHT22;12542;50.924;4.516;2022-08-20T08:12:25;28.00;99.90
24408;DHT22;12542;50.924;4.516;2022-08-20T08:14:53;28.10;99.90
24408;DHT22;12542;50.924;4.516;2022-08-20T08:17:20;28.70;99.90
24408;DHT22;12542;50.924;4.516;2022-08-20T08:19:48;28.80;99.90
24408;DHT22;12542;50.924;4.516;2022-08-20T08:22:17;28.50;99.90
24408;DHT22;12542;50.924;4.516;2022-08-20T08:24:43;28.80;99.90
24408;DHT22;12542;50.924;4.516;2022-08-20T08:27:12;29.00;99.90
24408;DHT22;12542;50.924;4.516;2022-08-20T08:29:38;29.30;99.90
24408;DHT22;12542;50.924;4.516;2022-08-20T08:32:10;29.40;99.30
24408;DHT22;12542;50.924;4.516;2022-08-20T08:34:38;28.90;99.90
24408;DHT22;12542;50.924;4.516;2022-08-20T08:37:04;29.00;99.90
24408;DHT22;12542;50.924;4.516;2022-08-20T08:39:32;29.00;99.90
24408;DHT22;12542;50.924;4.516;2022-08-20T08:41:59;29.30;99.30
24408;DHT22;12542;50.924;4.516;2022-08-20T08:44:33;29.30;99.30
24408;DHT22;12542;50.924;4.516;2022-08-20T08:47:02;29.40;99.20
24408;DHT22;12542;50.924;4.516;2022-08-20T08:49:44;29.80;98.20
24408;DHT22;12542;50.924;4.516;2022-08-20T08:52:16;29.80;97.40
24408;DHT22;12542;50.924;4.516;2022-08-20T08:54:50;29.70;97.50
24408;DHT22;12542;50.924;4.516;2022-08-20T08:57:17;30.00;96.60
24408;DHT22;12542;50.924;4.516;2022-08-20T08:59:49;30.00;96.90
24408;DHT22;12542;50.924;4.516;2022-08-20T09:02:23;29.70;97.10
24408;DHT22;12542;50.924;4.516;2022-08-20T09:04:51;29.80;97.20
24408;DHT22;12542;50.924;4.516;2022-08-20T09:07:20;29.80;96.70
24408;DHT22;12542;50.924;4.516;2022-08-20T09:09:51;29.90;95.50
24408;DHT22;12542;50.924;4.516;2022-08-20T09:12:21;29.90;95.40
24408;DHT22;12542;50.924;4.516;2022-08-20T09:14:49;30.20;95.70
24408;DHT22;12542;50.924;4.516;2022-08-20T09:17:17;30.40;95.30
24408;DHT22;12542;50.924;4.516;2022-08-20T09:19:43;30.30;94.70
24408;DHT22;12542;50.924;4.516;2022-08-20T09:22:13;29.60;93.10
24408;DHT22;12542;50.924;4.516;2022-08-20T09:24:40;29.00;93.80
24408;DHT22;12542;50.924;4.516;2022-08-20T09:27:08;28.60;94.00
24408;DHT22;12542;50.924;4.516;2022-08-20T09:29:34;28.20;94.90
24408;DHT22;12542;50.924;4.516;2022-08-20T09:32:21;27.90;94.00
24408;DHT22;12542;50.924;4.516;2022-08-20T09:34:48;27.70;95.40
24408;DHT22;12542;50.924;4.516;2022-08-20T09:37:16;27.40;96.00
24408;DHT22;12542;50.924;4.516;2022-08-20T09:39:42;26.90;96.20
24408;DHT22;12542;50.924;4.516;2022-08-20T09:42:11;27.00;96.90
24408;DHT22;12542;50.924;4.516;2022-08-20T09:44:37;26.60;97.20
24408;DHT22;12542;50.924;4.516;2022-08-20T09:47:03;26.70;97.00
24408;DHT22;12542;50.924;4.516;2022-08-20T09:49:29;26.40;96.30
24408;DHT22;12542;50.924;4.516;2022-08-20T09:51:55;26.20;95.90
24408;DHT22;12542;50.924;4.516;2022-08-20T09:54:23;26.10;97.90
24408;DHT22;12542;50.924;4.516;2022-08-20T09:56:52;26.10;96.30
24408;DHT22;12542;50.924;4.516;2022-08-20T09:59:18;25.80;97.20
24408;DHT22;12542;50.924;4.516;2022-08-20T10:01:43;25.60;98.10
24408;DHT22;12542;50.924;4.516;2022-08-20T10:04:09;25.50;98.00
24408;DHT22;12542;50.924;4.516;2022-08-20T10:06:39;25.70;99.00
24408;DHT22;12542;50.924;4.516;2022-08-20T10:09:07;25.50;98.90
24408;DHT22;12542;50.924;4.516;2022-08-20T10:11:33;25.60;99.20
24408;DHT22;12542;50.924;4.516;2022-08-20T10:14:01;25.50;98.70
24408;DHT22;12542;50.924;4.516;2022-08-20T10:16:30;25.90;98.20
24408;DHT22;12542;50.924;4.516;2022-08-20T10:18:58;26.00;97.50
24408;DHT22;12542;50.924;4.516;2022-08-20T10:21:24;25.90;96.30
24408;DHT22;12542;50.924;4.516;2022-08-20T10:23:49;25.60;96.50
24408;DHT22;12542;50.924;4.516;2022-08-20T10:26:19;25.60;96.70
24408;DHT22;12542;50.924;4.516;2022-08-20T10:28:45;25.70;97.50
24408;DHT22;12542;50.924;4.516;2022-08-20T10:31:11;26.30;97.40
24408;DHT22;12542;50.924;4.516;2022-08-20T10:33:38;26.90;94.60
24408;DHT22;12542;50.924;4.516;2022-08-20T10:36:14;27.30;93.30
24408;DHT22;12542;50.924;4.516;2022-08-20T10:38:41;27.50;92.40
24408;DHT22;12542;50.924;4.516;2022-08-20T10:41:07;28.00;92.00
24408;DHT22;12542;50.924;4.516;2022-08-20T10:43:33;27.90;90.50
24408;DHT22;12542;50.924;4.516;2022-08-20T10:45:59;27.80;90.60
24408;DHT22;12542;50.924;4.516;2022-08-20T10:48:25;28.10;90.60
24408;DHT22;12542;50.924;4.516;2022-08-20T10:50:51;28.10;88.70
24408;DHT22;12542;50.924;4.516;2022-08-20T10:53:17;28.40;89.00
24408;DHT22;12542;50.924;4.516;2022-08-20T10:55:43;28.70;87.90
24408;DHT22;12542;50.924;4.516;2022-08-20T10:58:09;28.80;89.20
24408;DHT22;12542;50.924;4.516;2022-08-20T11:00:38;28.50;87.60
24408;DHT22;12542;50.924;4.516;2022-08-20T11:03:04;28.20;89.20
24408;DHT22;12542;50.924;4.516;2022-08-20T11:05:29;28.20;90.20
24408;DHT22;12542;50.924;4.516;2022-08-20T11:08:03;27.70;88.40
24408;DHT22;12542;50.924;4.516;2022-08-20T11:10:30;27.60;89.30
24408;DHT22;12542;50.924;4.516;2022-08-20T11:12:57;27.70;90.60
24408;DHT22;12542;50.924;4.516;2022-08-20T11:15:23;27.60;90.50
24408;DHT22;12542;50.924;4.516;2022-08-20T11:17:49;27.70;90.50
24408;DHT22;12542;50.924;4.516;2022-08-20T11:20:18;28.00;88.30
24408;DHT22;12542;50.924;4.516;2022-08-20T11:22:44;28.50;89.50
24408;DHT22;12542;50.924;4.516;2022-08-20T11:25:10;28.80;87.20
24408;DHT22;12542;50.924;4.516;2022-08-20T11:27:45;28.40;86.20
24408;DHT22;12542;50.924;4.516;2022-08-20T11:30:18;28.00;85.60
24408;DHT22;12542;50.924;4.516;2022-08-20T11:32:44;27.80;88.00
24408;DHT22;12542;50.924;4.516;2022-08-20T11:35:10;27.70;87.10
24408;DHT22;12542;50.924;4.516;2022-08-20T11:37:35;27.60;84.20
24408;DHT22;12542;50.924;4.516;2022-08-20T11:40:04;27.70;83.80
24408;DHT22;12542;50.924;4.516;2022-08-20T11:42:30;27.70;82.60
24408;DHT22;12542;50.924;4.516;2022-08-20T11:44:55;27.30;85.90
24408;DHT22;12542;50.924;4.516;2022-08-20T11:47:24;26.90;83.90
24408;DHT22;12542;50.924;4.516;2022-08-20T11:50:08;27.30;85.50
24408;DHT22;12542;50.924;4.516;2022-08-20T11:52:39;27.60;83.90
24408;DHT22;12542;50.924;4.516;2022-08-20T11:55:06;28.00;83.10
24408;DHT22;12542;50.924;4.516;2022-08-20T11:57:34;28.40;82.60
24408;DHT22;12542;50.924;4.516;2022-08-20T12:00:03;28.80;81.00
24408;DHT22;12542;50.924;4.516;2022-08-20T12:02:29;29.30;80.90
24408;DHT22;12542;50.924;4.516;2022-08-20T12:04:55;29.60;80.60
24408;DHT22;12542;50.924;4.516;2022-08-20T12:07:23;29.60;76.50
24408;DHT22;12542;50.924;4.516;2022-08-20T12:09:50;30.00;75.60
24408;DHT22;12542;50.924;4.516;2022-08-20T12:12:17;30.10;72.70
24408;DHT22;12542;50.924;4.516;2022-08-20T12:14:44;30.10;71.70
24408;DHT22;12542;50.924;4.516;2022-08-20T12:17:28;30.10;73.80
24408;DHT22;12542;50.924;4.516;2022-08-20T12:19:57;30.20;73.00
24408;DHT22;12542;50.924;4.516;2022-08-20T12:22:23;29.90;75.80
24408;DHT22;12542;50.924;4.516;2022-08-20T12:24:49;29.80;76.10
24408;DHT22;12542;50.924;4.516;2022-08-20T12:27:26;29.50;76.20
24408;DHT22;12542;50.924;4.516;2022-08-20T12:29:54;29.00;76.10
24408;DHT22;12542;50.924;4.516;2022-08-20T12:32:21;28.40;76.40
24408;DHT22;12542;50.924;4.516;2022-08-20T12:34:47;28.60;75.00
24408;DHT22;12542;50.924;4.516;2022-08-20T12:37:16;28.40;77.20
24408;DHT22;12542;50.924;4.516;2022-08-20T12:39:44;28.20;77.90
24408;DHT22;12542;50.924;4.516;2022-08-20T12:42:11;28.20;77.60
24408;DHT22;12542;50.924;4.516;2022-08-20T12:44:37;28.40;76.70
24408;DHT22;12542;50.924;4.516;2022-08-20T12:47:12;28.90;79.60
24408;DHT22;12542;50.924;4.516;2022-08-20T12:49:45;29.20;77.20
24408;DHT22;12542;50.924;4.516;2022-08-20T12:52:12;29.40;69.70
24408;DHT22;12542;50.924;4.516;2022-08-20T12:54:39;29.40;72.90
24408;DHT22;12542;50.924;4.516;2022-08-20T12:57:05;29.50;74.10
24408;DHT22;12542;50.924;4.516;2022-08-20T12:59:33;29.50;71.70
24408;DHT22;12542;50.924;4.516;2022-08-20T13:01:58;29.30;70.70
24408;DHT22;12542;50.924;4.516;2022-08-20T13:04:24;29.50;73.00
24408;DHT22;12542;50.924;4.516;2022-08-20T13:06:52;29.70;72.30
24408;DHT22;12542;50.924;4.516;2022-08-20T13:09:24;29.70;70.30
24408;DHT22;12542;50.924;4.516;2022-08-20T13:11:52;29.80;71.60
24408;DHT22;12542;50.924;4.516;2022-08-20T13:14:17;29.80;71.30
24408;DHT22;12542;50.924;4.516;2022-08-20T13:16:43;29.30;70.60
24408;DHT22;12542;50.924;4.516;2022-08-20T13:19:09;28.90;72.20
24408;DHT22;12542;50.924;4.516;2022-08-20T13:21:34;28.80;71.70
24408;DHT22;12542;50.924;4.516;2022-08-20T13:24:01;28.60;72.20
24408;DHT22;12542;50.924;4.516;2022-08-20T13:26:27;28.90;73.20
24408;DHT22;12542;50.924;4.516;2022-08-20T13:28:53;29.30;71.60
24408;DHT22;12542;50.924;4.516;2022-08-20T13:31:18;29.50;72.00
24408;DHT22;12542;50.924;4.516;2022-08-20T13:33:47;29.20;71.40
24408;DHT22;12542;50.924;4.516;2022-08-20T13:36:13;29.10;70.50
24408;DHT22;12542;50.924;4.516;2022-08-20T13:38:38;29.10;71.50
24408;DHT22;12542;50.924;4.516;2022-08-20T13:41:04;29.20;70.50
24408;DHT22;12542;50.924;4.516;2022-08-20T13:43:29;29.10;72.10
24408;DHT22;12542;50.924;4.516;2022-08-20T13:45:55;28.90;71.50
24408;DHT22;12542;50.924;4.516;2022-08-20T13:48:21;28.70;71.80
24408;DHT22;12542;50.924;4.516;2022-08-20T13:50:46;28.80;72.40
24408;DHT22;12542;50.924;4.516;2022-08-20T13:53:12;28.80;74.00
24408;DHT22;12542;50.924;4.516;2022-08-20T13:55:38;29.00;72.90
24408;DHT22;12542;50.924;4.516;2022-08-20T13:58:05;28.90;71.30
24408;DHT22;12542;50.924;4.516;2022-08-20T14:00:32;28.80;73.70
24408;DHT22;12542;50.924;4.516;2022-08-20T14:03:02;28.60;73.20
24408;DHT22;12542;50.924;4.516;2022-08-20T14:05:30;28.60;74.70
24408;DHT22;12542;50.924;4.516;2022-08-20T14:08:09;28.20;75.00
24408;DHT22;12542;50.924;4.516;2022-08-20T14:10:36;27.90;77.00
24408;DHT22;12542;50.924;4.516;2022-08-20T14:13:04;27.70;76.90
24408;DHT22;12542;50.924;4.516;2022-08-20T14:15:32;27.50;78.00
24408;DHT22;12542;50.924;4.516;2022-08-20T14:17:58;27.30;77.70
24408;DHT22;12542;50.924;4.516;2022-08-20T14:20:26;27.10;79.10
24408;DHT22;12542;50.924;4.516;2022-08-20T14:22:53;26.90;78.00
24408;DHT22;12542;50.924;4.516;2022-08-20T14:25:20;26.90;80.20
24408;DHT22;12542;50.924;4.516;2022-08-20T14:27:47;26.80;79.40
24408;DHT22;12542;50.924;4.516;2022-08-20T14:30:25;26.70;78.90
24408;DHT22;12542;50.924;4.516;2022-08-20T14:32:52;26.90;79.20
24408;DHT22;12542;50.924;4.516;2022-08-20T14:35:18;27.20;76.30
24408;DHT22;12542;50.924;4.516;2022-08-20T14:37:49;27.30;77.80
24408;DHT22;12542;50.924;4.516;2022-08-20T14:40:20;27.50;78.40
24408;DHT22;12542;50.924;4.516;2022-08-20T14:42:46;27.50;78.50
24408;DHT22;12542;50.924;4.516;2022-08-20T14:45:16;27.30;78.70
24408;DHT22;12542;50.924;4.516;2022-08-20T14:47:46;27.30;79.40
24408;DHT22;12542;50.924;4.516;2022-08-20T14:50:25;27.30;77.10
24408;DHT22;12542;50.924;4.516;2022-08-20T14:52:51;27.10;77.60
24408;DHT22;12542;50.924;4.516;2022-08-20T14:55:20;26.90;79.20
24408;DHT22;12542;50.924;4.516;2022-08-20T14:57:47;27.00;79.00
24408;DHT22;12542;50.924;4.516;2022-08-20T15:00:16;26.80;80.30
24408;DHT22;12542;50.924;4.516;2022-08-20T15:02:43;26.70;77.40
24408;DHT22;12542;50.924;4.516;2022-08-20T15:05:10;26.90;80.10
24408;DHT22;12542;50.924;4.516;2022-08-20T15:07:41;26.90;80.10
24408;DHT22;12542;50.924;4.516;2022-08-20T15:10:15;26.60;79.30
24408;DHT22;12542;50.924;4.516;2022-08-20T15:12:41;26.40;80.20
24408;DHT22;12542;50.924;4.516;2022-08-20T15:15:13;26.40;80.60
24408;DHT22;12542;50.924;4.516;2022-08-20T15:17:46;26.10;79.80
24408;DHT22;12542;50.924;4.516;2022-08-20T15:20:15;26.30;79.40
24408;DHT22;12542;50.924;4.516;2022-08-20T15:22:44;26.50;78.70
24408;DHT22;12542;50.924;4.516;2022-08-20T15:25:12;26.50;78.80
24408;DHT22;12542;50.924;4.516;2022-08-20T15:27:38;26.50;78.50
24408;DHT22;12542;50.924;4.516;2022-08-20T15:30:07;26.60;78.50
24408;DHT22;12542;50.924;4.516;2022-08-20T15:32:34;26.40;80.80
24408;DHT22;12542;50.924;4.516;2022-08-20T15:34:59;26.40;80.80
24408;DHT22;12542;50.924;4.516;2022-08-20T15:37:28;26.20;80.80
24408;DHT22;12542;50.924;4.516;2022-08-20T15:39:56;26.20;81.40
24408;DHT22;12542;50.924;4.516;2022-08-20T15:42:22;26.10;83.20